This is the latest recevied weather packets stored in our database for station/object F4IDZ-11. If no packets are shown the sender has not sent any weather packets the latest 10 day(s).
| Time | Temp. | Humidity | Pressure | Rain* | Wind** | Luminosity | Snow |
|---|---|---|---|---|---|---|---|
| 1778191338 | 15° C | 54% | 994.2 hPa | - | - | - | - |
| 1778190438 | 15.56° C | 54% | 994.3 hPa | - | - | - | - |
| 1778189537 | 15.56° C | 54% | 994.3 hPa | - | - | - | - |
| 1778188637 | 16.11° C | 54% | 994.1 hPa | - | - | - | - |
| 1778187737 | 16.67° C | 53% | 994 hPa | - | - | - | - |
| 1778186837 | 16.67° C | 53% | 993.9 hPa | - | - | - | - |
| 1778185937 | 17.22° C | 53% | 993.8 hPa | - | - | - | - |
| 1778185937 | 17.22° C | 53% | 993.8 hPa | - | - | - | - |
| 1778185036 | 17.78° C | 53% | 993.7 hPa | - | - | - | - |
| 1778184136 | 18.33° C | 52% | 993.6 hPa | - | - | - | - |
| 1778176733 | 21.67° C | 49% | 993 hPa | - | - | - | - |
| 1778175833 | 22.22° C | 49% | 992.9 hPa | - | - | - | - |
| 1778174933 | 22.22° C | 50% | 993 hPa | - | - | - | - |
| 1778174033 | 22.22° C | 50% | 993 hPa | - | - | - | - |
| 1778173133 | 22.22° C | 50% | 993.2 hPa | - | - | - | - |
| 1778172233 | 22.22° C | 50% | 993.1 hPa | - | - | - | - |
| 1778171332 | 21.67° C | 51% | 993.1 hPa | - | - | - | - |
| 1778170432 | 22.22° C | 51% | 993.3 hPa | - | - | - | - |
| 1778169532 | 22.22° C | 51% | 993.4 hPa | - | - | - | - |
| 1778168632 | 22.78° C | 50% | 993.4 hPa | - | - | - | - |
| 1778167731 | 23.33° C | 50% | 993.5 hPa | - | - | - | - |
| 1778166831 | 23.33° C | 50% | 993.5 hPa | - | - | - | - |
| 1778165931 | 22.78° C | 50% | 993.6 hPa | - | - | - | - |
| 1778165031 | 22.78° C | 50% | 993.7 hPa | - | - | - | - |
| 1778164353 | 22.22° C | 50% | 993.7 hPa | - | - | - | - |
* Rain since midnight (hover to see other rain measurements)
** Current wind speed in m/s (hover to see current wind gust speed)